Time;durP1;ratioP1;P1;durP2;ratioP2;P2;SDS_P1;SDS_P2;PMS_P1;PMS_P2;Temp;Humidity;BMP_temperature;BMP_pressure;BME280_temperature;BME280_humidity;BME280_pressure;Samples;Min_cycle;Max_cycle;Signal;HPM_P1;HPM_P2
2022/02/23 00:00:11;;;;;;;60.00;55.00;;;;;;;7.54;100.00;102507.86;2011143;71;32739;-74
2022/02/23 00:05:55;;;;;;;61.67;56.07;;;;;;;7.54;100.00;102512.53;2014512;71;32808;-74
2022/02/23 00:11:41;;;;;;;62.87;57.70;;;;;;;7.45;100.00;102529.08;2007654;71;32858;-73
2022/02/23 00:17:25;;;;;;;61.10;55.73;;;;;;;7.50;100.00;102530.12;1990984;71;32795;-74
2022/02/23 00:23:10;;;;;;;64.33;58.73;;;;;;;7.39;100.00;102522.55;2016228;71;33262;-73
2022/02/23 00:28:54;;;;;;;62.67;57.13;;;;;;;7.26;100.00;102532.31;2003532;71;33312;-73
2022/02/23 00:34:38;;;;;;;60.60;55.43;;;;;;;7.25;100.00;102538.37;2011419;71;33231;-74
2022/02/23 00:40:23;;;;;;;62.37;56.23;;;;;;;7.12;100.00;102548.66;2009336;71;32810;-74
2022/02/23 00:46:08;;;;;;;63.30;57.40;;;;;;;7.20;100.00;102543.72;1991003;71;32823;-74
2022/02/23 00:51:52;;;;;;;60.70;55.67;;;;;;;7.14;100.00;102534.95;2000118;71;32723;-74
2022/02/23 00:57:36;;;;;;;63.00;56.67;;;;;;;7.05;100.00;102536.27;1996527;71;33317;-72
2022/02/23 01:03:22;;;;;;;63.37;57.37;;;;;;;7.04;100.00;102522.66;2015975;71;32898;-74
2022/02/23 01:09:07;;;;;;;59.73;53.83;;;;;;;6.82;100.00;102539.56;2008940;71;32919;-74
2022/02/23 01:14:52;;;;;;;59.90;54.27;;;;;;;6.90;100.00;102530.70;1998154;71;32917;-74
2022/02/23 01:20:36;;;;;;;62.23;56.67;;;;;;;6.84;100.00;102526.39;2016316;71;32893;-73
2022/02/23 01:26:20;;;;;;;60.80;54.93;;;;;;;6.46;100.00;102526.02;2005078;71;32893;-74
2022/02/23 01:32:08;;;;;;;60.47;54.63;;;;;;;6.44;100.00;102514.32;2003413;71;32890;-74
2022/02/23 01:37:53;;;;;;;59.20;53.57;;;;;;;6.56;100.00;102517.57;2007580;71;32814;-72
2022/02/23 01:43:37;;;;;;;59.30;53.13;;;;;;;6.74;100.00;102510.81;2002044;71;33289;-73
2022/02/23 01:49:22;;;;;;;58.93;53.53;;;;;;;6.76;100.00;102518.89;2014407;71;32910;-75
2022/02/23 01:55:08;;;;;;;60.90;55.03;;;;;;;6.82;100.00;102513.84;2008674;71;32941;-74
2022/02/23 02:00:52;;;;;;;58.70;53.00;;;;;;;6.78;100.00;102520.35;2014330;71;32811;-73
2022/02/23 02:06:36;;;;;;;59.20;53.27;;;;;;;6.78;100.00;102513.45;1996409;71;32954;-73
2022/02/23 02:12:21;;;;;;;58.67;53.03;;;;;;;6.78;100.00;102522.27;2016200;71;32815;-73
2022/02/23 02:18:06;;;;;;;65.73;59.97;;;;;;;6.92;100.00;102518.91;2000225;71;32738;-73
2022/02/23 02:23:50;;;;;;;65.13;59.57;;;;;;;6.89;100.00;102511.07;2008757;71;32813;-74
2022/02/23 02:29:36;;;;;;;63.23;58.00;;;;;;;6.92;100.00;102516.15;2008883;71;33324;-74
2022/02/23 02:35:22;;;;;;;64.67;59.33;;;;;;;6.87;100.00;102511.28;2017830;71;32875;-74
2022/02/23 02:41:06;;;;;;;60.77;55.70;;;;;;;6.88;100.00;102499.70;2005835;71;33313;-73
2022/02/23 02:46:51;;;;;;;61.97;56.33;;;;;;;6.86;100.00;102491.63;2009514;71;33288;-74
2022/02/23 02:52:35;;;;;;;63.80;58.43;;;;;;;6.86;100.00;102502.14;2000192;71;32753;-75
2022/02/23 02:58:20;;;;;;;63.20;57.60;;;;;;;6.78;100.00;102496.88;2012706;71;33026;-74
2022/02/23 03:04:07;;;;;;;57.80;52.67;;;;;;;6.76;100.00;102498.17;2014352;71;32810;-74
2022/02/23 03:09:51;;;;;;;63.00;57.10;;;;;;;6.63;100.00;102500.44;2011090;71;33297;-73
2022/02/23 03:15:36;;;;;;;65.17;59.37;;;;;;;6.67;100.00;102498.11;2018101;71;33394;-74
2022/02/23 03:21:21;;;;;;;65.30;59.23;;;;;;;6.60;100.00;102495.36;2016092;71;32874;-73
2022/02/23 03:27:06;;;;;;;62.77;56.90;;;;;;;6.56;100.00;102506.52;1994827;71;33240;-73
2022/02/23 03:32:50;;;;;;;65.13;59.53;;;;;;;6.59;100.00;102490.08;2010525;71;33065;-73
2022/02/23 03:38:34;;;;;;;62.30;56.83;;;;;;;6.27;100.00;102497.39;2018248;71;33309;-74
2022/02/23 03:44:18;;;;;;;65.70;59.67;;;;;;;6.17;100.00;102500.59;2014342;71;32944;-73
2022/02/23 03:50:03;;;;;;;62.30;56.50;;;;;;;6.02;100.00;102494.48;2003956;71;33335;-73
2022/02/23 03:55:47;;;;;;;64.07;58.47;;;;;;;5.80;100.00;102504.02;2016145;71;32862;-74
2022/02/23 04:01:31;;;;;;;61.43;55.67;;;;;;;5.59;100.00;102494.07;2005471;71;33077;-73
2022/02/23 04:07:15;;;;;;;58.27;52.67;;;;;;;5.43;100.00;102517.92;2018052;71;32870;-74
2022/02/23 04:12:59;;;;;;;61.50;55.23;;;;;;;5.80;100.00;102499.89;2013048;71;32739;-73
2022/02/23 04:18:45;;;;;;;59.97;54.23;;;;;;;5.05;100.00;102521.75;2017968;71;32855;-72
2022/02/23 04:24:29;;;;;;;59.87;53.90;;;;;;;5.16;100.00;102510.14;2005262;71;32888;-74
2022/02/23 04:30:13;;;;;;;64.23;58.10;;;;;;;5.18;100.00;102508.00;2018225;71;33397;-73
2022/02/23 04:35:58;;;;;;;58.80;53.67;;;;;;;5.06;100.00;102508.30;1997948;71;32977;-74
2022/02/23 04:41:42;;;;;;;57.20;51.73;;;;;;;4.59;100.00;102516.94;2003577;71;32880;-72
2022/02/23 04:47:26;;;;;;;57.60;52.30;;;;;;;4.86;100.00;102506.89;2016297;71;32806;-74
2022/02/23 04:53:11;;;;;;;56.63;51.40;;;;;;;4.89;100.00;102514.72;2014693;71;32894;-74
2022/02/23 04:58:56;;;;;;;56.97;51.67;;;;;;;4.61;100.00;102517.27;2014321;71;32913;-74
2022/02/23 05:04:39;;;;;;;57.97;52.23;;;;;;;4.52;100.00;102520.72;1951106;72;33030;-73
2022/02/23 05:10:23;;;;;;;58.60;52.37;;;;;;;4.72;100.00;102524.41;2003503;71;33351;-73
2022/02/23 05:16:08;;;;;;;61.50;55.77;;;;;;;4.58;100.00;102521.27;2016402;71;32909;-72
2022/02/23 05:21:53;;;;;;;58.10;52.60;;;;;;;4.86;100.00;102517.90;2002306;71;33345;-72
2022/02/23 05:27:37;;;;;;;59.37;53.53;;;;;;;4.68;100.00;102515.38;1991188;71;33207;-73
2022/02/23 05:33:22;;;;;;;57.90;52.33;;;;;;;4.62;100.00;102519.80;2003537;71;32931;-73
2022/02/23 05:39:07;;;;;;;56.10;50.20;;;;;;;4.62;100.00;102519.80;2005262;71;33297;-74
2022/02/23 05:44:52;;;;;;;58.83;53.40;;;;;;;4.48;100.00;102514.79;2011058;70;33447;-72
2022/02/23 05:50:36;;;;;;;61.00;54.80;;;;;;;4.45;100.00;102508.85;2018024;71;33055;-73
2022/02/23 05:56:20;;;;;;;57.57;51.53;;;;;;;4.65;100.00;102499.30;2003644;71;33300;-72
2022/02/23 06:02:04;;;;;;;59.20;53.40;;;;;;;4.63;100.00;102506.89;2008947;71;32931;-74
2022/02/23 06:07:47;;;;;;;58.60;52.40;;;;;;;4.62;100.00;102512.92;2012964;71;33350;-73
2022/02/23 06:13:32;;;;;;;57.63;51.70;;;;;;;4.65;100.00;102512.53;2018033;71;32812;-73
2022/02/23 06:19:17;;;;;;;56.97;51.30;;;;;;;4.68;100.00;102512.63;2014683;71;33272;-74
2022/02/23 06:25:03;;;;;;;58.27;52.60;;;;;;;4.68;100.00;102509.88;2007784;71;33279;-72
2022/02/23 06:30:47;;;;;;;55.20;49.80;;;;;;;4.53;100.00;102510.05;2000209;71;33004;-73
2022/02/23 06:36:31;;;;;;;58.27;52.57;;;;;;;4.56;100.00;102506.35;2003407;71;33304;-73
2022/02/23 06:42:15;;;;;;;57.13;51.47;;;;;;;4.45;100.00;102519.86;2010833;71;32810;-74
2022/02/23 06:47:59;;;;;;;58.83;52.93;;;;;;;4.45;100.00;102511.05;2012952;71;33502;-73
2022/02/23 06:53:44;;;;;;;56.27;51.17;;;;;;;4.41;100.00;102513.03;1999581;71;33270;-72
2022/02/23 06:59:29;;;;;;;57.93;52.10;;;;;;;4.31;100.00;102518.08;2009194;71;33469;-73
2022/02/23 07:05:15;;;;;;;60.97;55.23;;;;;;;4.28;100.00;102515.19;2005237;71;32817;-72
2022/02/23 07:10:59;;;;;;;57.57;51.33;;;;;;;4.29;100.00;102518.27;1999794;71;32940;-71
2022/02/23 07:16:43;;;;;;;61.53;55.57;;;;;;;4.15;100.00;102504.11;2016157;71;32933;-72
2022/02/23 07:22:27;;;;;;;55.57;50.30;;;;;;;4.11;100.00;102505.05;2005221;71;32795;-73
2022/02/23 07:28:12;;;;;;;62.57;56.53;;;;;;;4.39;100.00;102504.15;2014504;71;32981;-72
2022/02/23 07:33:57;;;;;;;60.40;54.50;;;;;;;4.22;100.00;102511.04;2005907;71;32745;-72
2022/02/23 07:39:41;;;;;;;62.50;56.07;;;;;;;4.40;100.00;102501.20;1994454;71;32863;-71
2022/02/23 07:45:26;;;;;;;57.53;52.30;;;;;;;4.51;100.00;102501.13;2000171;71;32947;-72
2022/02/23 07:51:10;;;;;;;61.83;55.73;;;;;;;4.70;100.00;102496.78;2014372;71;32954;-72
2022/02/23 07:56:55;;;;;;;61.73;55.93;;;;;;;4.91;100.00;102496.10;2003429;71;32874;-71
2022/02/23 08:02:39;;;;;;;64.33;58.13;;;;;;;4.83;100.00;102489.41;2009507;71;33193;-71
2022/02/23 08:08:24;;;;;;;64.60;58.43;;;;;;;5.10;100.00;102495.81;2014391;71;32881;-73
2022/02/23 08:14:10;;;;;;;63.43;55.77;;;;;;;5.33;100.00;102498.19;2008772;70;32815;-73
2022/02/23 08:19:54;;;;;;;58.87;52.80;;;;;;;5.53;100.00;102472.00;2011224;71;32905;-74
2022/02/23 08:25:39;;;;;;;59.60;54.23;;;;;;;5.81;100.00;102473.48;2012810;71;33351;-75
2022/02/23 08:31:24;;;;;;;64.03;57.80;;;;;;;6.02;100.00;102467.43;2016314;71;32946;-73
2022/02/23 08:37:09;;;;;;;66.27;60.17;;;;;;;6.26;100.00;102471.70;2000473;71;33241;-73
2022/02/23 08:42:54;;;;;;;66.60;60.17;;;;;;;6.55;100.00;102469.46;2000296;71;32932;-73
2022/02/23 08:48:38;;;;;;;60.50;55.17;;;;;;;6.78;100.00;102458.73;2003411;71;33340;-75
2022/02/23 08:54:23;;;;;;;66.93;60.73;;;;;;;7.07;100.00;102460.05;2000463;70;33211;-74
2022/02/23 09:00:10;;;;;;;61.43;55.60;;;;;;;7.23;100.00;102439.62;2014740;71;32795;-74
2022/02/23 09:05:54;;;;;;;60.63;54.50;;;;;;;7.56;100.00;102442.12;2009196;71;33381;-73
2022/02/23 09:11:38;;;;;;;58.17;52.10;;;;;;;7.78;100.00;102451.71;2008979;71;33318;-72
2022/02/23 09:17:23;;;;;;;58.80;52.50;;;;;;;7.95;100.00;102449.73;2010920;71;32933;-71
2022/02/23 09:23:07;;;;;;;59.60;53.70;;;;;;;8.06;100.00;102442.04;1994890;71;33536;-71
2022/02/23 09:28:51;;;;;;;60.50;54.33;;;;;;;8.19;100.00;102434.44;2016197;71;32886;-74
2022/02/23 09:34:35;;;;;;;59.13;52.93;;;;;;;8.38;100.00;102440.86;2005893;71;33275;-71
2022/02/23 09:40:20;;;;;;;63.57;57.60;;;;;;;8.48;100.00;102435.59;2014484;71;33289;-72
2022/02/23 09:46:06;;;;;;;60.03;54.47;;;;;;;8.70;100.00;102427.63;1996671;71;33245;-73
2022/02/23 09:51:50;;;;;;;64.63;59.00;;;;;;;8.60;100.00;102417.11;2016281;71;33241;-71
2022/02/23 09:57:34;;;;;;;69.07;62.67;;;;;;;8.62;100.00;102408.04;2009188;71;33392;-72
2022/02/23 10:03:21;;;;;;;70.77;65.13;;;;;;;8.77;100.00;102408.98;2005448;71;32960;-73
2022/02/23 10:09:06;;;;;;;60.80;55.17;;;;;;;8.76;100.00;102409.23;2005985;71;33379;-73
2022/02/23 10:14:52;;;;;;;66.37;60.17;;;;;;;8.73;100.00;102406.95;2014628;71;33387;-71
2022/02/23 10:20:51;;;;;;;62.43;56.20;;;;;;;8.80;100.00;102390.52;2008878;71;32801;-71
2022/02/23 10:26:36;;;;;;;61.93;55.90;;;;;;;9.09;100.00;102368.84;1999951;71;33322;-73
2022/02/23 10:32:22;;;;;;;60.33;54.53;;;;;;;9.44;100.00;102358.33;2007546;71;32866;-74
2022/02/23 10:38:11;;;;;;;60.23;55.03;;;;;;;9.77;100.00;102349.38;2014486;71;32870;-73
2022/02/23 10:43:58;;;;;;;61.13;56.30;;;;;;;9.87;100.00;102345.45;2016249;71;33359;-73
2022/02/23 10:49:44;;;;;;;62.87;57.90;;;;;;;10.00;100.00;102327.98;2016481;71;32898;-72
2022/02/23 10:55:30;;;;;;;63.03;57.67;;;;;;;10.12;100.00;102304.87;2007604;71;32809;-72
2022/02/23 11:01:16;;;;;;;62.17;56.97;;;;;;;10.26;100.00;102298.83;2000102;71;32759;-73
2022/02/23 11:07:01;;;;;;;61.83;57.03;;;;;;;10.49;100.00;102286.75;2001908;71;33443;-73
2022/02/23 11:12:47;;;;;;;61.57;56.60;;;;;;;10.58;100.00;102273.28;2005874;71;33313;-71
2022/02/23 11:18:32;;;;;;;57.77;53.30;;;;;;;10.70;100.00;102255.45;2016373;71;33080;-74
2022/02/23 11:24:18;;;;;;;51.83;48.50;;;;;;;10.81;100.00;102229.52;2017994;71;32810;-72
2022/02/23 11:30:05;;;;;;;47.90;44.90;;;;;;;11.00;100.00;102218.11;2006662;71;33398;-71
2022/02/23 11:35:55;;;;;;;48.13;44.83;;;;;;;11.21;100.00;102200.66;2014324;71;32971;-72
2022/02/23 11:41:48;;;;;;;43.47;40.87;;;;;;;11.28;100.00;102183.22;1994767;71;32945;-71
2022/02/23 11:47:34;;;;;;;38.50;36.13;;;;;;;11.52;100.00;102170.73;2007576;71;32880;-71
2022/02/23 11:53:20;;;;;;;31.87;29.97;;;;;;;11.53;100.00;102161.29;2005417;71;32807;-70
2022/02/23 11:59:09;;;;;;;31.27;29.37;;;;;;;11.46;100.00;102146.75;2005137;71;32799;-76
2022/02/23 12:05:04;;;;;;;30.63;28.63;;;;;;;11.48;100.00;102144.53;1977246;72;32864;-72
2022/02/23 12:11:03;;;;;;;29.97;28.07;;;;;;;11.33;100.00;102110.42;2016224;71;33327;-70
2022/02/23 12:16:55;;;;;;;25.03;23.50;;;;;;;11.55;100.00;102131.82;2000170;71;32830;-70
2022/02/23 12:23:03;;;;;;;23.03;21.73;;;;;;;11.69;100.00;102119.16;2012667;71;32899;-72
2022/02/23 12:29:06;;;;;;;25.17;23.37;;;;;;;11.62;100.00;102100.44;1994375;71;32828;-69
2022/02/23 12:34:52;;;;;;;22.47;21.10;;;;;;;11.43;100.00;102106.35;1999964;71;33452;-70
2022/02/23 12:40:38;;;;;;;22.07;20.77;;;;;;;11.94;100.00;102092.19;2008805;71;32831;-71
2022/02/23 12:46:23;;;;;;;23.33;21.83;;;;;;;11.52;100.00;102089.19;1991204;71;32912;-72
2022/02/23 12:52:10;;;;;;;23.53;21.80;;;;;;;11.38;100.00;102076.27;2004000;71;32771;-72
2022/02/23 12:57:54;;;;;;;23.00;21.67;;;;;;;11.23;100.00;102076.91;2012977;71;33290;-73
2022/02/23 13:03:39;;;;;;;24.73;22.80;;;;;;;11.18;100.00;102060.70;1988377;71;32871;-74
2022/02/23 13:09:25;;;;;;;23.13;21.63;;;;;;;11.16;100.00;102051.80;1996524;71;32839;-72
2022/02/23 13:15:12;;;;;;;24.90;23.20;;;;;;;11.07;100.00;102056.97;2008969;71;33526;-72
2022/02/23 13:21:12;;;;;;;25.77;23.97;;;;;;;11.05;100.00;102045.25;2013365;71;33317;-72
2022/02/23 13:27:10;;;;;;;37.67;34.07;;;;;;;11.02;100.00;102047.72;2016432;71;33371;-73
2022/02/23 13:33:00;;;;;;;33.23;30.47;;;;;;;11.00;100.00;102029.05;2005179;71;32941;-71
2022/02/23 13:38:45;;;;;;;29.50;26.80;;;;;;;10.94;100.00;102020.67;2001900;71;33248;-72
2022/02/23 13:44:34;;;;;;;29.10;26.70;;;;;;;10.95;100.00;101997.88;2016248;71;33351;-74
2022/02/23 13:50:24;;;;;;;37.57;34.03;;;;;;;10.92;100.00;101989.49;2012911;71;33270;-71
2022/02/23 13:56:16;;;;;;;37.07;33.73;;;;;;;11.00;100.00;101972.05;1998038;71;32833;-70
2022/02/23 14:02:16;;;;;;;27.40;25.00;;;;;;;11.18;100.00;101955.02;2016402;70;33376;-75
2022/02/23 14:08:05;;;;;;;25.47;23.33;;;;;;;11.22;100.00;101937.55;2005356;71;32868;-70
2022/02/23 14:13:52;;;;;;;24.57;22.67;;;;;;;11.27;100.00;101942.31;2000128;71;32778;-73
2022/02/23 14:19:44;;;;;;;24.97;22.97;;;;;;;11.35;100.00;101908.45;2005719;71;32843;-74
2022/02/23 14:25:33;;;;;;;26.73;24.60;;;;;;;11.40;100.00;101905.73;2012444;71;32924;-74
2022/02/23 14:31:21;;;;;;;26.93;24.70;;;;;;;11.28;100.00;101899.50;2005557;71;33274;-74
2022/02/23 14:37:06;;;;;;;27.53;25.30;;;;;;;11.26;100.00;101899.75;1991152;71;32764;-75
2022/02/23 14:42:53;;;;;;;29.37;27.20;;;;;;;11.35;100.00;101902.89;1998143;71;32805;-72
2022/02/23 14:48:38;;;;;;;29.73;27.37;;;;;;;11.40;100.00;101892.66;1998069;71;32879;-73
2022/02/23 14:54:22;;;;;;;29.67;27.23;;;;;;;11.41;100.00;101874.03;2005896;71;33205;-72
2022/02/23 15:00:10;;;;;;;29.80;27.60;;;;;;;11.53;100.00;101881.63;2018062;71;32870;-74
2022/02/23 15:05:55;;;;;;;30.87;28.37;;;;;;;11.42;100.00;101867.36;2014424;71;33020;-74
2022/02/23 15:11:40;;;;;;;33.77;31.30;;;;;;;11.29;100.00;101859.47;2018159;71;33296;-72
2022/02/23 15:17:24;;;;;;;36.50;33.63;;;;;;;11.24;100.00;101864.98;2005761;71;32785;-75
2022/02/23 15:23:08;;;;;;;34.30;32.20;;;;;;;11.22;100.00;101868.56;1994712;71;32841;-74
2022/02/23 15:28:52;;;;;;;33.33;30.97;;;;;;;11.12;100.00;101854.04;2002064;71;33221;-72
2022/02/23 15:34:37;;;;;;;31.50;29.13;;;;;;;11.18;100.00;101848.79;2016140;71;32875;-73
2022/02/23 15:40:21;;;;;;;30.23;28.03;;;;;;;11.16;100.00;101846.00;2014410;71;33355;-72
2022/02/23 15:46:05;;;;;;;29.47;27.53;;;;;;;11.07;100.00;101832.30;2005832;71;33271;-74
2022/02/23 15:51:50;;;;;;;30.10;27.93;;;;;;;11.12;100.00;101824.00;2011117;71;32747;-75
2022/02/23 15:57:34;;;;;;;26.20;24.40;;;;;;;11.10;100.00;101802.01;2013166;71;33243;-73
2022/02/23 16:03:20;;;;;;;25.10;23.47;;;;;;;11.07;100.00;101801.70;2016496;71;33355;-73
2022/02/23 16:09:05;;;;;;;25.50;23.80;;;;;;;11.00;100.00;101799.13;2002199;71;32949;-73
2022/02/23 16:14:49;;;;;;;25.63;23.97;;;;;;;10.96;100.00;101796.59;2014531;71;32897;-73
2022/02/23 16:20:34;;;;;;;26.30;24.40;;;;;;;10.91;100.00;101793.22;2007224;71;32835;-74
2022/02/23 16:26:19;;;;;;;26.03;24.33;;;;;;;10.88;100.00;101787.36;1991093;71;32777;-75
2022/02/23 16:32:05;;;;;;;26.80;24.90;;;;;;;10.82;100.00;101787.88;2011177;71;33298;-77
2022/02/23 16:37:50;;;;;;;26.37;24.77;;;;;;;10.92;100.00;101782.94;1999573;71;32822;-73
2022/02/23 16:43:36;;;;;;;27.17;25.43;;;;;;;10.85;100.00;101778.16;2011335;71;32910;-72
2022/02/23 16:49:20;;;;;;;28.60;26.83;;;;;;;10.84;100.00;101780.10;2014268;71;32913;-76
2022/02/23 16:55:06;;;;;;;31.53;29.20;;;;;;;10.78;100.00;101777.55;2004132;71;33302;-75
2022/02/23 17:00:51;;;;;;;32.47;30.20;;;;;;;10.73;100.00;101765.84;2014635;71;32961;-75
2022/02/23 17:06:36;;;;;;;32.93;30.73;;;;;;;10.72;100.00;101734.14;2000043;71;32931;-73
2022/02/23 17:12:21;;;;;;;35.27;32.87;;;;;;;10.61;100.00;101738.75;2005936;71;33255;-73
2022/02/23 17:18:05;;;;;;;37.17;34.60;;;;;;;10.67;100.00;101750.76;2000425;71;32834;-78
2022/02/23 17:23:50;;;;;;;43.67;40.50;;;;;;;10.61;100.00;101747.66;2010980;71;33353;-79
2022/02/23 17:29:34;;;;;;;50.60;47.27;;;;;;;10.54;100.00;101747.02;2018272;71;33361;-78
2022/02/23 17:35:19;;;;;;;53.20;49.80;;;;;;;10.53;100.00;101749.50;2007485;71;32831;-77
2022/02/23 17:41:06;;;;;;;51.33;47.67;;;;;;;10.48;100.00;101751.13;2013404;71;32802;-77
2022/02/23 17:46:51;;;;;;;53.27;49.43;;;;;;;10.45;100.00;101745.27;2001772;71;32891;-71
2022/02/23 17:52:36;;;;;;;50.53;47.13;;;;;;;10.38;100.00;101743.27;1996658;71;32928;-77
2022/02/23 17:58:22;;;;;;;46.40;43.07;;;;;;;10.36;100.00;101736.57;2011372;71;33275;-71
2022/02/23 18:04:07;;;;;;;45.77;42.33;;;;;;;10.35;100.00;101730.75;2003940;71;32885;-79
2022/02/23 18:09:51;;;;;;;44.20;41.00;;;;;;;10.29;100.00;101720.68;1994252;71;32854;-72
2022/02/23 18:15:35;;;;;;;43.40;39.80;;;;;;;10.34;100.00;101721.28;2010767;71;33396;-75
2022/02/23 18:21:20;;;;;;;42.50;39.47;;;;;;;10.29;100.00;101717.91;2012582;71;32927;-71
2022/02/23 18:27:04;;;;;;;42.80;39.43;;;;;;;10.36;100.00;101699.08;2009416;71;32995;-70
2022/02/23 18:32:48;;;;;;;47.87;44.53;;;;;;;10.20;100.00;101688.93;2006181;71;33278;-71
2022/02/23 18:38:33;;;;;;;56.10;52.27;;;;;;;10.19;100.00;101701.67;1991154;71;32825;-72
2022/02/23 18:44:18;;;;;;;63.37;58.87;;;;;;;9.96;100.00;101686.16;1998311;71;33296;-71
2022/02/23 18:50:04;;;;;;;63.63;59.20;;;;;;;9.94;100.00;101689.72;2008990;71;32909;-71
2022/02/23 18:55:49;;;;;;;65.43;60.63;;;;;;;9.82;100.00;101677.94;1999565;71;32835;-74
2022/02/23 19:01:34;;;;;;;63.10;58.23;;;;;;;9.68;100.00;101685.81;2007268;71;32818;-72
2022/02/23 19:07:18;;;;;;;63.73;59.23;;;;;;;9.63;100.00;101673.27;1991326;71;32776;-77
2022/02/23 19:13:02;;;;;;;63.60;59.13;;;;;;;9.51;100.00;101667.02;2005200;71;32868;-71
2022/02/23 19:18:46;;;;;;;62.40;57.80;;;;;;;9.45;100.00;101666.68;2004006;71;32764;-73
2022/02/23 19:24:31;;;;;;;63.37;58.93;;;;;;;9.46;100.00;101665.02;2003659;71;32850;-72
2022/02/23 19:30:16;;;;;;;66.17;60.97;;;;;;;9.36;100.00;101668.22;2016407;71;33290;-73
2022/02/23 19:36:00;;;;;;;64.67;59.80;;;;;;;9.24;100.00;101662.77;2005291;71;32808;-77
2022/02/23 19:41:45;;;;;;;65.57;61.10;;;;;;;9.44;100.00;101656.67;2014639;71;33363;-72
2022/02/23 19:47:30;;;;;;;63.03;58.73;;;;;;;9.27;100.00;101642.88;2004201;71;32800;-73
2022/02/23 19:53:14;;;;;;;64.53;60.17;;;;;;;9.38;100.00;101628.58;2010822;71;32793;-77
2022/02/23 19:58:59;;;;;;;62.17;57.77;;;;;;;9.37;100.00;101629.70;2001647;71;32828;-74
2022/02/23 20:04:43;;;;;;;61.93;57.53;;;;;;;9.22;100.00;101617.02;1979660;72;33341;-72
2022/02/23 20:07:34;;;;;;;62.30;57.80;;;;;;;9.26;100.00;101630.65;1939261;73;26236;-72
2022/02/23 20:13:21;;;;;;;60.27;55.87;;;;;;;9.37;100.00;101618.03;2007751;71;32825;-72
2022/02/23 20:19:06;;;;;;;59.57;55.50;;;;;;;9.41;100.00;101594.81;1996737;71;32843;-72
2022/02/23 20:24:50;;;;;;;61.17;57.00;;;;;;;9.37;100.00;101595.85;1994891;71;33283;-75
2022/02/23 20:30:35;;;;;;;60.80;56.83;;;;;;;9.32;100.00;101586.11;1996862;70;32737;-77
2022/02/23 20:36:21;;;;;;;60.73;56.50;;;;;;;9.32;100.00;101582.50;2016526;71;32967;-79
2022/02/23 20:42:06;;;;;;;60.80;56.20;;;;;;;9.35;100.00;101573.66;2011418;71;32953;-73
2022/02/23 20:47:52;;;;;;;60.43;56.33;;;;;;;9.38;100.00;101575.35;2004479;71;33346;-70
2022/02/23 20:53:36;;;;;;;61.13;56.80;;;;;;;9.39;100.00;101563.17;2012973;71;33323;-76
2022/02/23 20:59:20;;;;;;;59.83;55.77;;;;;;;9.41;100.00;101559.58;2011384;71;32822;-76
2022/02/23 21:05:06;;;;;;;59.53;55.40;;;;;;;9.37;100.00;101548.72;1999730;70;32913;-71
2022/02/23 21:10:51;;;;;;;61.77;57.60;;;;;;;9.37;100.00;101544.56;2016710;71;32846;-76
2022/02/23 21:16:35;;;;;;;61.23;57.17;;;;;;;9.45;100.00;101539.12;2003620;71;32845;-74
2022/02/23 21:22:19;;;;;;;59.93;55.63;;;;;;;9.38;100.00;101528.22;2014674;71;32931;-75
2022/02/23 21:28:05;;;;;;;61.77;57.40;;;;;;;9.46;100.00;101516.66;2014539;71;33297;-70
2022/02/23 21:33:49;;;;;;;61.13;56.93;;;;;;;9.41;100.00;101513.82;2003528;71;33267;-75
2022/02/23 21:39:34;;;;;;;61.30;56.73;;;;;;;9.46;100.00;101515.27;2016278;71;32945;-76
2022/02/23 21:45:20;;;;;;;60.03;55.67;;;;;;;9.46;100.00;101501.41;2001865;71;33395;-72
2022/02/23 21:51:05;;;;;;;60.63;56.13;;;;;;;9.27;100.00;101500.66;2007121;71;32872;-76
2022/02/23 21:56:49;;;;;;;60.97;56.50;;;;;;;9.24;100.00;101495.64;1991159;71;32789;-74
2022/02/23 22:02:34;;;;;;;60.93;56.40;;;;;;;9.18;100.00;101496.12;2002098;71;32753;-75
2022/02/23 22:08:20;;;;;;;60.23;55.50;;;;;;;9.16;100.00;101489.17;2008967;71;32744;-72
2022/02/23 22:14:05;;;;;;;62.00;57.50;;;;;;;9.18;100.00;101481.42;1996399;71;33207;-71
2022/02/23 22:19:50;;;;;;;59.83;55.13;;;;;;;9.09;100.00;101474.13;2016195;71;32805;-75
2022/02/23 22:25:34;;;;;;;59.10;54.70;;;;;;;9.12;100.00;101460.58;1996572;71;32747;-75
2022/02/23 22:31:19;;;;;;;61.40;57.10;;;;;;;9.13;100.00;101452.55;1998600;71;32887;-71
2022/02/23 22:37:03;;;;;;;57.80;53.53;;;;;;;9.17;100.00;101440.39;2009042;71;33388;-74
2022/02/23 22:42:48;;;;;;;58.07;53.87;;;;;;;9.01;100.00;101442.17;2011028;70;32878;-74
2022/02/23 22:48:32;;;;;;;61.03;56.50;;;;;;;8.98;100.00;101427.47;2003631;71;33052;-71
2022/02/23 22:54:25;;;;;;;60.33;55.97;;;;;;;8.97;100.00;101433.26;2004547;71;32838;-76
2022/02/23 23:00:20;;;;;;;65.65;60.65;;;;;;;8.96;100.00;101426.87;1993244;70;27999;-77
2022/02/23 23:06:13;;;;;;;63.70;59.30;;;;;;;8.93;100.00;101431.56;2005190;71;32814;-75
2022/02/23 23:11:59;;;;;;;61.90;57.00;;;;;;;8.88;100.00;101419.58;2012638;71;33056;-72
2022/02/23 23:17:43;;;;;;;63.07;58.50;;;;;;;8.82;100.00;101406.75;2014863;71;33285;-77
2022/02/23 23:23:28;;;;;;;60.53;56.13;;;;;;;8.83;100.00;101400.96;1991368;71;32847;-76
2022/02/23 23:29:12;;;;;;;63.10;58.70;;;;;;;8.84;100.00;101394.88;2007205;71;32931;-72
2022/02/23 23:34:57;;;;;;;62.63;58.13;;;;;;;9.00;100.00;101385.63;2003933;71;32739;-71
2022/02/23 23:40:41;;;;;;;62.13;57.90;;;;;;;9.15;100.00;101377.48;1998183;71;32928;-72
2022/02/23 23:46:26;;;;;;;60.37;55.93;;;;;;;9.19;100.00;101349.52;2016352;71;33303;-76
2022/02/23 23:52:10;;;;;;;62.37;57.97;;;;;;;9.02;100.00;101331.63;2014512;70;32788;-72
2022/02/23 23:57:55;;;;;;;61.47;57.07;;;;;;;9.02;100.00;101319.71;2005781;71;33194;-72
